Flight Track Log - Related Links

Times and Time Zones

All times are in EDT time to prevent confusion due to time zone crossing. See the SWA1435 flight status page for this flight to view local times or setup timezone preferences in your user account.

Time Position Orientation Groundspeed Altitude Reporting Facility
EDT Latitude Longitude Course Direction KTS MPH feet Rate Location/Type
Wed 09:28:06 AM 38.7275 -90.2822 122° Southeast 159 183 1,800  Level FAA TRACON SMA TRACON (SMA)
Wed 09:28:25 AM 38.7203 -90.2672 122° Southeast 159 183 2,300 1,050 Climbing FAA TRACON SMA TRACON (SMA)
Wed 09:28:46 AM 38.7108 -90.2492 124° Southeast 185 213 2,500 1,756 Climbing FAA TRACON SMA TRACON (SMA)
Wed 09:29:06 AM 38.6942 -90.2294 137° Southeast 216 249 3,500 3,231 Climbing FAA TRACON SMA TRACON (SMA)
Wed 09:29:25 AM 38.6767 -90.2272 174° South 216 249 4,600 3,000 Climbing FAA TRACON SMA TRACON (SMA)
Wed 09:29:46 AM 38.6628 -90.2389 213° Southwest 209 241 5,500 1,902 Climbing FAA TRACON SMA TRACON (SMA)
Wed 09:30:06 AM 38.6506 -90.2656 240° Southwest 220 253 5,900 750 Climbing FAA TRACON SMA TRACON (SMA)
Wed 09:30:26 AM 38.6414 -90.2892 244° Southwest 239 275 6,000 750 Climbing FAA TRACON SMA TRACON (SMA)
Wed 09:30:46 AM 38.6311 -90.3139 242° Southwest 252 290 6,400 2,550 Climbing FAA TRACON SMA TRACON (SMA)
Wed 09:31:06 AM 38.6183 -90.3444 242° Southwest 256 295 7,700 3,385 Climbing FAA TRACON SMA TRACON (SMA)
Wed 09:31:25 AM 38.6122 -90.3717 254° West 261 300 8,600 1,950 Climbing FAA TRACON SMA TRACON (SMA)
Wed 09:31:46 AM 38.6169 -90.4003 282° West 271 312 9,000 878 Climbing FAA TRACON SMA TRACON (SMA)
Wed 09:32:06 AM 38.6325 -90.4244 309° West 285 328 9,200 1,500 Climbing FAA TRACON SMA TRACON (SMA)
Wed 09:32:26 AM 38.6550 -90.4536 315° West 299 344 10,000 1,950 Climbing FAA TRACON SMA TRACON (SMA)
Wed 09:32:46 AM 38.6739 -90.4781 315° West 310 357 10,500 1,500 Climbing FAA TRACON SMA TRACON (SMA)
Wed 09:33:06 AM 38.6939 -90.5039 315° West 326 375 11,000 1,800 Climbing FAA TRACON SMA TRACON (SMA)
Wed 09:33:26 AM 38.7208 -90.5378 316° Northwest 349 402 11,700 2,195 Climbing FAA TRACON SMA TRACON (SMA)
Wed 09:33:47 AM 38.7425 -90.5653 315° West 358 412 12,500 2,550 Climbing FAA TRACON SMA TRACON (SMA)
Wed 09:34:06 AM 38.7650 -90.5936 316° Northwest 364 419 13,400 2,850 Climbing FAA TRACON SMA TRACON (SMA)
Wed 09:34:27 AM 38.7931 -90.6289 316° Northwest 368 423 14,400 2,700 Climbing FAA TRACON SMA TRACON (SMA)
Wed 09:34:46 AM 38.8153 -90.6578 315° West 371 427 15,200 2,615 Climbing FAA TRACON SMA TRACON (SMA)
Wed 09:35:06 AM 38.8383 -90.6864 316° Northwest 373 429 16,100 2,923 Climbing FAA TRACON SMA TRACON (SMA)
Wed 09:35:25 AM 38.8611 -90.7153 315° West 372 428 17,100 2,850 Climbing FAA TRACON SMA TRACON (SMA)
Wed 09:35:46 AM 38.8892 -90.7506 316° Northwest 369 425 18,000 2,488 Climbing FAA TRACON SMA TRACON (SMA)
Wed 09:36:06 AM 38.9114 -90.7797 314° West 370 426 18,800 2,550 Climbing FAA TRACON SMA TRACON (SMA)
Wed 09:36:26 AM 38.9394 -90.8158 315° West 372 428 19,700 2,400 Climbing FAA TRACON SMA TRACON (SMA)
Wed 09:36:46 AM 38.9622 -90.8444 316° Northwest 372 428 20,400 2,000 Climbing FAA TRACON SMA TRACON (SMA)
Wed 09:37:05 AM 38.9850 -90.8736 315° West 374 430 21,000 1,650 Climbing FAA TRACON SMA TRACON (SMA)
Wed 09:37:26 AM 39.0139 -90.9108 315° West 379 436 21,500 1,317 Climbing FAA TRACON SMA TRACON (SMA)
Wed 09:37:46 AM 39.0389 -90.9408 317° Northwest 391 450 21,900 1,538 Climbing FAA TRACON SMA TRACON (SMA)
Wed 09:38:05 AM 39.0628 -90.9719 315° West 398 458 22,500 2,100 Climbing FAA TRACON SMA TRACON (SMA)
Wed 09:38:26 AM 39.0922 -91.0119 313° West 402 463 23,300 2,195 Climbing FAA TRACON SMA TRACON (SMA)
Wed 09:38:46 AM 39.1117 -91.0475 305° West 398 458 24,000 2,000 Climbing FAA TRACON SMA TRACON (SMA)
Wed 09:39:05 AM 39.1286 -91.0850 300° West 393 452 24,600 1,950 Climbing FAA TRACON SMA TRACON (SMA)
Wed 09:39:26 AM 39.1489 -91.1319 299° West 392 451 25,300 1,610 Climbing FAA TRACON SMA TRACON (SMA)
Wed 09:39:46 AM 39.1653 -91.1700 299° West 395 455 25,700 1,350 Climbing FAA TRACON SMA TRACON (SMA)
Wed 09:40:06 AM 39.1808 -91.2094 297° West 400 460 26,200 1,500 Climbing FAA TRACON SMA TRACON (SMA)
Wed 09:40:26 AM 39.1975 -91.2483 299° West 402 463 26,700 1,650 Climbing FAA TRACON SMA TRACON (SMA)
Wed 09:40:46 AM 39.2169 -91.2975 297° West 402 463 27,300 1,500 Climbing FAA TRACON SMA TRACON (SMA)
Wed 09:41:06 AM 39.2333 -91.3369 298° West 406 467 27,700 1,385 Climbing FAA TRACON SMA TRACON (SMA)
Wed 09:41:25 AM 39.2494 -91.3769 297° West 408 470 28,200 1,950 Climbing FAA TRACON SMA TRACON (SMA)
Wed 09:41:46 AM 39.2700 -91.4264 298° West 407 468 29,000 2,053 Climbing FAA TRACON SMA TRACON (SMA)
Wed 09:42:41 AM 39.3042 -91.5819 286° West 404 465 30,800 1,436 Climbing Kansas City Center
Wed 09:43:43 AM 39.3575 -91.7128 298° West 392 451 31,800 1,131 Climbing Kansas City Center
Wed 09:44:43 AM 39.4075 -91.8417 297° West 400 460 33,100 1,041 Climbing Kansas City Center
Wed 09:45:44 AM 39.4578 -91.9681 297° West 399 459 33,900 432 Climbing Kansas City Center
Wed 09:46:48 AM 39.5039 -92.0944 295° West 394 453 34,000 48 Climbing Kansas City Center
Wed 09:47:50 AM 39.5575 -92.2383 296° West 383 441 34,000  Level Kansas City Center
Wed 09:48:50 AM 39.6025 -92.3592 296° West 377 434 34,000  Level Kansas City Center
Wed 09:49:51 AM 39.6492 -92.4853 296° West 381 438 34,000  Level Kansas City Center
Wed 09:50:55 AM 39.6964 -92.6111 296° West 388 447 34,000  Level Kansas City Center
Wed 09:51:56 AM 39.7433 -92.7392 296° West 390 449 34,000  Level Kansas City Center
Wed 09:52:56 AM 39.7903 -92.8678 295° West 393 452 34,000  Level Kansas City Center
Wed 09:54:00 AM 39.8394 -92.9950 297° West 395 455 34,000  Level Kansas City Center
Wed 09:55:01 AM 39.8989 -93.1442 297° West 389 448 34,000  Level Kansas City Center
Wed 09:56:04 AM 39.9528 -93.2675 300° West 391 450 34,000 -98 Level Kansas City Center
Wed 09:57:04 AM 40.0069 -93.3897 300° West 391 450 33,800 -397 Descending Kansas City Center
Wed 09:58:05 AM 40.0775 -93.4983 310° West 392 451 33,200 -726 Descending Kansas City Center
Wed 09:59:08 AM 40.1511 -93.6014 313° West 388 447 32,300 -871 Descending Kansas City Center
Wed 10:00:09 AM 40.2256 -93.7017 314° West 387 445 31,400 -871 Descending Kansas City Center
Wed 10:01:12 AM 40.3050 -93.8014 316° Northwest 393 452 30,500 -683 Descending Kansas City Center
Wed 10:02:12 AM 40.4025 -93.9192 317° Northwest 401 461 30,000 -248 Descending Kansas City Center
Wed 10:03:13 AM 40.5239 -93.9247 358° North 431 496 30,000 -484 Level Kansas City Center
Wed 10:04:16 AM 40.6431 -93.9258 360° North 432 497 29,000 -1,015 Descending Kansas City Center
Wed 10:05:23 AM 40.7853 -93.9283 359° North 430 495 27,800 -1,031 Descending Minneapolis Center
Wed 10:06:24 AM 40.9042 -93.9322 359° North 430 495 26,800 -927 Descending Minneapolis Center
Wed 10:07:26 AM 41.0236 -93.9594 350° North 437 503 25,900 -927 Descending Minneapolis Center
Wed 10:08:27 AM 41.1233 -94.0431 328° Northwest 425 489 24,900 -976 Descending Minneapolis Center
Wed 10:09:29 AM 41.2219 -94.1236 328° Northwest 421 484 23,900 -976 Descending Minneapolis Center
Wed 10:10:30 AM 41.3164 -94.2050 327° Northwest 413 475 22,900 -1,623 Descending Minneapolis Center
Wed 10:11:31 AM 41.3483 -94.3544 286° West 361 415 20,600 -2,195 Descending Minneapolis Center
Wed 10:12:33 AM 41.3325 -94.4800 261° West 345 397 18,400 -1,561 Descending Minneapolis Center
Wed 10:13:34 AM 41.3117 -94.6025 257° West 339 390 17,400 -927 Descending Minneapolis Center
Wed 10:14:36 AM 41.3011 -94.7244 263° West 335 386 16,500 -875 Descending Minneapolis Center
Wed 10:15:10 AM 41.3044 -94.8108 273° West 337 388 16,000 -492 Descending Minneapolis Center
Wed 10:15:37 AM 41.2853 -94.8456 234° Southwest 333 383 16,000  Level Minneapolis Center
Wed 10:15:59 AM 41.2919 -94.8983 280° West 317 365 16,000 -194 Level Minneapolis Center
Wed 10:16:39 AM 41.2733 -94.9556 247° West 314 361 15,800 -1,000 Descending Minneapolis Center
Wed 10:16:59 AM 41.2933 -95.0011 300° West 280 322 15,000 -1,770 Descending Minneapolis Center
Wed 10:17:40 AM 41.2936 -95.0564 270° West 291 335 14,000 -1,869 Descending Minneapolis Center
Wed 10:18:00 AM 41.3139 -95.1094 297° West 275 316 13,100 -1,839 Descending Minneapolis Center
Wed 10:18:42 AM 41.3125 -95.1539 268° West 278 320 12,100 -1,864 Descending Minneapolis Center
Wed 10:19:43 AM 41.3278 -95.2447 283° West 262 302 9,900 -2,146 Descending Minneapolis Center
Wed 10:20:45 AM 41.2942 -95.3458 246° West 250 288 7,700 -1,854 Descending Minneapolis Center
Wed 10:21:46 AM 41.2658 -95.4325 247° West 251 289 6,100 -1,561 Descending Minneapolis Center
Wed 10:22:48 AM 41.2375 -95.5203 247° West 254 292 4,500 -1,016 Descending Minneapolis Center
Wed 10:23:50 AM 41.2089 -95.6092 247° West 257 296 4,000 -244 Descending Minneapolis Center
Wed 10:24:51 AM 41.1797 -95.6969 246° West 258 297 4,000 -372 Level Minneapolis Center
Wed 10:25:59 AM 41.1944 -95.7956 281° West 246 283 3,200 -732 Descending Minneapolis Center
Wed 10:26:54 AM 41.2333 -95.8297 327° Northwest 237 273 2,500 -893 Descending Minneapolis Center
Wed 10:28:00 AM 41.2772 -95.8772 321° Northwest 139 160 1,400 -732 Descending Minneapolis Center
Wed 10:28:57 AM 41.3028 -95.8953 332° Northwest 164 189 1,000 -421 Descending Minneapolis Center
Wed 10:30:00 AM 41.3032 -95.8941 323° Northwest  Level Estimated

Login

Don't have an account? Register now (free) for customized features, flight alerts, and more!